sensor_id;sensor_type;location;lat;lon;timestamp;P1;durP1;ratioP1;P2;durP2;ratioP2
77146;SDS011;66121;52.584;9.694;2023-08-17T00:00:39;8.13;;;3.13;;
77146;SDS011;66121;52.584;9.694;2023-08-17T00:03:25;4.55;;;2.60;;
77146;SDS011;66121;52.584;9.694;2023-08-17T00:06:11;8.52;;;3.17;;
77146;SDS011;66121;52.584;9.694;2023-08-17T00:08:56;6.78;;;3.15;;
77146;SDS011;66121;52.584;9.694;2023-08-17T00:11:42;5.85;;;3.17;;
77146;SDS011;66121;52.584;9.694;2023-08-17T00:14:27;6.72;;;3.30;;
77146;SDS011;66121;52.584;9.694;2023-08-17T00:17:13;6.85;;;2.88;;
77146;SDS011;66121;52.584;9.694;2023-08-17T00:19:59;8.13;;;3.20;;
77146;SDS011;66121;52.584;9.694;2023-08-17T00:22:44;6.10;;;3.55;;
77146;SDS011;66121;52.584;9.694;2023-08-17T00:25:30;7.38;;;3.10;;
77146;SDS011;66121;52.584;9.694;2023-08-17T00:28:16;8.35;;;2.90;;
77146;SDS011;66121;52.584;9.694;2023-08-17T00:31:01;6.93;;;2.78;;
77146;SDS011;66121;52.584;9.694;2023-08-17T00:33:47;9.05;;;3.60;;
77146;SDS011;66121;52.584;9.694;2023-08-17T00:36:33;12.35;;;3.20;;
77146;SDS011;66121;52.584;9.694;2023-08-17T00:39:18;5.40;;;2.63;;
77146;SDS011;66121;52.584;9.694;2023-08-17T00:42:05;5.68;;;3.15;;
77146;SDS011;66121;52.584;9.694;2023-08-17T00:44:53;11.70;;;3.30;;
77146;SDS011;66121;52.584;9.694;2023-08-17T00:47:39;7.90;;;2.97;;
77146;SDS011;66121;52.584;9.694;2023-08-17T00:50:25;9.80;;;3.08;;
77146;SDS011;66121;52.584;9.694;2023-08-17T00:53:12;7.70;;;3.38;;
77146;SDS011;66121;52.584;9.694;2023-08-17T00:55:59;5.57;;;3.33;;
77146;SDS011;66121;52.584;9.694;2023-08-17T00:58:45;7.30;;;3.53;;
77146;SDS011;66121;52.584;9.694;2023-08-17T01:01:30;6.43;;;2.75;;
77146;SDS011;66121;52.584;9.694;2023-08-17T01:04:16;7.55;;;3.30;;
77146;SDS011;66121;52.584;9.694;2023-08-17T01:07:02;6.55;;;3.40;;
77146;SDS011;66121;52.584;9.694;2023-08-17T01:09:47;6.07;;;3.13;;
77146;SDS011;66121;52.584;9.694;2023-08-17T01:12:36;9.18;;;3.05;;
77146;SDS011;66121;52.584;9.694;2023-08-17T01:15:30;8.57;;;3.40;;
77146;SDS011;66121;52.584;9.694;2023-08-17T01:18:21;9.00;;;3.55;;
77146;SDS011;66121;52.584;9.694;2023-08-17T01:21:10;4.78;;;2.88;;
77146;SDS011;66121;52.584;9.694;2023-08-17T01:23:59;5.15;;;3.22;;
77146;SDS011;66121;52.584;9.694;2023-08-17T01:26:45;8.32;;;3.40;;
77146;SDS011;66121;52.584;9.694;2023-08-17T01:29:30;6.53;;;3.05;;
77146;SDS011;66121;52.584;9.694;2023-08-17T01:35:17;9.68;;;3.85;;
77146;SDS011;66121;52.584;9.694;2023-08-17T01:38:12;8.48;;;3.30;;
77146;SDS011;66121;52.584;9.694;2023-08-17T01:41:02;8.30;;;3.67;;
77146;SDS011;66121;52.584;9.694;2023-08-17T01:43:49;9.80;;;3.97;;
77146;SDS011;66121;52.584;9.694;2023-08-17T01:46:37;6.20;;;3.30;;
77146;SDS011;66121;52.584;9.694;2023-08-17T01:49:22;15.73;;;4.25;;
77146;SDS011;66121;52.584;9.694;2023-08-17T01:52:08;10.20;;;3.45;;
77146;SDS011;66121;52.584;9.694;2023-08-17T01:54:54;14.82;;;3.88;;
77146;SDS011;66121;52.584;9.694;2023-08-17T01:57:40;7.70;;;3.65;;
77146;SDS011;66121;52.584;9.694;2023-08-17T02:00:26;8.82;;;3.28;;
77146;SDS011;66121;52.584;9.694;2023-08-17T02:03:11;7.80;;;4.40;;
77146;SDS011;66121;52.584;9.694;2023-08-17T02:05:57;7.22;;;3.55;;
77146;SDS011;66121;52.584;9.694;2023-08-17T02:08:43;8.52;;;3.33;;
77146;SDS011;66121;52.584;9.694;2023-08-17T02:11:29;10.10;;;3.53;;
77146;SDS011;66121;52.584;9.694;2023-08-17T02:14:15;7.95;;;3.67;;
77146;SDS011;66121;52.584;9.694;2023-08-17T02:17:01;7.70;;;3.88;;
77146;SDS011;66121;52.584;9.694;2023-08-17T02:19:46;9.13;;;3.58;;
77146;SDS011;66121;52.584;9.694;2023-08-17T02:22:33;7.65;;;3.40;;
77146;SDS011;66121;52.584;9.694;2023-08-17T02:25:18;6.07;;;3.50;;
77146;SDS011;66121;52.584;9.694;2023-08-17T02:28:04;5.75;;;3.97;;
77146;SDS011;66121;52.584;9.694;2023-08-17T02:30:54;6.20;;;3.70;;
77146;SDS011;66121;52.584;9.694;2023-08-17T02:33:43;9.15;;;4.25;;
77146;SDS011;66121;52.584;9.694;2023-08-17T02:36:29;8.05;;;4.07;;
77146;SDS011;66121;52.584;9.694;2023-08-17T02:39:15;7.32;;;4.15;;
77146;SDS011;66121;52.584;9.694;2023-08-17T02:42:00;6.38;;;4.22;;
77146;SDS011;66121;52.584;9.694;2023-08-17T02:44:46;7.13;;;4.00;;
77146;SDS011;66121;52.584;9.694;2023-08-17T02:47:32;6.80;;;4.63;;
77146;SDS011;66121;52.584;9.694;2023-08-17T02:50:17;7.38;;;4.57;;
77146;SDS011;66121;52.584;9.694;2023-08-17T02:53:03;11.13;;;4.82;;
77146;SDS011;66121;52.584;9.694;2023-08-17T02:55:49;7.28;;;5.20;;
77146;SDS011;66121;52.584;9.694;2023-08-17T02:58:34;11.60;;;4.50;;
77146;SDS011;66121;52.584;9.694;2023-08-17T03:01:20;12.50;;;5.07;;
77146;SDS011;66121;52.584;9.694;2023-08-17T03:04:06;14.15;;;4.90;;
77146;SDS011;66121;52.584;9.694;2023-08-17T03:06:51;8.88;;;4.57;;
77146;SDS011;66121;52.584;9.694;2023-08-17T03:09:37;7.85;;;4.20;;
77146;SDS011;66121;52.584;9.694;2023-08-17T03:12:22;3.15;;;1.25;;
77146;SDS011;66121;52.584;9.694;2023-08-17T03:15:08;12.45;;;4.90;;
77146;SDS011;66121;52.584;9.694;2023-08-17T03:17:54;12.52;;;5.28;;
77146;SDS011;66121;52.584;9.694;2023-08-17T03:20:40;8.88;;;4.88;;
77146;SDS011;66121;52.584;9.694;2023-08-17T03:23:25;8.05;;;5.05;;
77146;SDS011;66121;52.584;9.694;2023-08-17T03:26:11;7.60;;;4.45;;
77146;SDS011;66121;52.584;9.694;2023-08-17T03:28:56;11.77;;;5.43;;
77146;SDS011;66121;52.584;9.694;2023-08-17T03:31:42;10.25;;;5.28;;
77146;SDS011;66121;52.584;9.694;2023-08-17T03:34:28;12.30;;;5.47;;
77146;SDS011;66121;52.584;9.694;2023-08-17T03:37:13;7.80;;;4.72;;
77146;SDS011;66121;52.584;9.694;2023-08-17T03:39:59;9.27;;;5.25;;
77146;SDS011;66121;52.584;9.694;2023-08-17T03:42:45;11.27;;;5.13;;
77146;SDS011;66121;52.584;9.694;2023-08-17T03:45:31;9.90;;;5.80;;
77146;SDS011;66121;52.584;9.694;2023-08-17T03:48:17;10.07;;;5.45;;
77146;SDS011;66121;52.584;9.694;2023-08-17T03:51:03;9.35;;;5.57;;
77146;SDS011;66121;52.584;9.694;2023-08-17T03:53:49;10.10;;;5.53;;
77146;SDS011;66121;52.584;9.694;2023-08-17T03:56:35;10.82;;;6.93;;
77146;SDS011;66121;52.584;9.694;2023-08-17T03:59:20;11.43;;;6.22;;
77146;SDS011;66121;52.584;9.694;2023-08-17T04:02:06;9.75;;;6.35;;
77146;SDS011;66121;52.584;9.694;2023-08-17T04:04:52;10.55;;;5.85;;
77146;SDS011;66121;52.584;9.694;2023-08-17T04:07:37;9.77;;;6.38;;
77146;SDS011;66121;52.584;9.694;2023-08-17T04:10:23;11.50;;;6.70;;
77146;SDS011;66121;52.584;9.694;2023-08-17T04:13:09;9.05;;;6.28;;
77146;SDS011;66121;52.584;9.694;2023-08-17T04:15:54;9.98;;;6.35;;
77146;SDS011;66121;52.584;9.694;2023-08-17T04:18:40;14.18;;;6.25;;
77146;SDS011;66121;52.584;9.694;2023-08-17T04:21:26;10.98;;;6.55;;
77146;SDS011;66121;52.584;9.694;2023-08-17T04:24:11;11.27;;;6.25;;
77146;SDS011;66121;52.584;9.694;2023-08-17T04:26:57;11.95;;;6.55;;
77146;SDS011;66121;52.584;9.694;2023-08-17T04:29:43;7.47;;;6.05;;
77146;SDS011;66121;52.584;9.694;2023-08-17T04:32:29;11.35;;;6.63;;
77146;SDS011;66121;52.584;9.694;2023-08-17T04:35:15;10.98;;;6.43;;
77146;SDS011;66121;52.584;9.694;2023-08-17T04:38:00;9.85;;;6.35;;
77146;SDS011;66121;52.584;9.694;2023-08-17T04:40:46;12.15;;;6.03;;
77146;SDS011;66121;52.584;9.694;2023-08-17T04:43:32;12.80;;;7.25;;
77146;SDS011;66121;52.584;9.694;2023-08-17T04:46:17;11.57;;;6.10;;
77146;SDS011;66121;52.584;9.694;2023-08-17T04:49:03;11.13;;;6.72;;
77146;SDS011;66121;52.584;9.694;2023-08-17T04:51:49;9.70;;;6.85;;
77146;SDS011;66121;52.584;9.694;2023-08-17T04:54:34;10.13;;;5.88;;
77146;SDS011;66121;52.584;9.694;2023-08-17T04:57:21;12.55;;;6.78;;
77146;SDS011;66121;52.584;9.694;2023-08-17T05:00:07;7.93;;;5.65;;
77146;SDS011;66121;52.584;9.694;2023-08-17T05:02:55;11.25;;;6.75;;
77146;SDS011;66121;52.584;9.694;2023-08-17T05:05:40;10.60;;;6.35;;
77146;SDS011;66121;52.584;9.694;2023-08-17T05:08:26;10.40;;;5.82;;
77146;SDS011;66121;52.584;9.694;2023-08-17T05:11:12;7.95;;;5.95;;
77146;SDS011;66121;52.584;9.694;2023-08-17T05:13:57;10.43;;;6.10;;
77146;SDS011;66121;52.584;9.694;2023-08-17T05:16:43;8.15;;;5.80;;
77146;SDS011;66121;52.584;9.694;2023-08-17T05:19:28;7.28;;;6.20;;
77146;SDS011;66121;52.584;9.694;2023-08-17T05:22:14;11.52;;;6.05;;
77146;SDS011;66121;52.584;9.694;2023-08-17T05:25:00;9.75;;;6.18;;
77146;SDS011;66121;52.584;9.694;2023-08-17T05:27:46;9.10;;;6.82;;
77146;SDS011;66121;52.584;9.694;2023-08-17T05:30:32;9.55;;;7.00;;
77146;SDS011;66121;52.584;9.694;2023-08-17T05:33:18;9.60;;;5.90;;
77146;SDS011;66121;52.584;9.694;2023-08-17T05:36:03;12.50;;;6.88;;
77146;SDS011;66121;52.584;9.694;2023-08-17T05:38:49;11.02;;;6.63;;
77146;SDS011;66121;52.584;9.694;2023-08-17T05:41:35;11.30;;;6.95;;
77146;SDS011;66121;52.584;9.694;2023-08-17T05:44:20;12.50;;;6.60;;
77146;SDS011;66121;52.584;9.694;2023-08-17T05:47:06;8.90;;;5.57;;
77146;SDS011;66121;52.584;9.694;2023-08-17T05:49:52;10.13;;;7.10;;
77146;SDS011;66121;52.584;9.694;2023-08-17T05:52:38;11.88;;;5.97;;
77146;SDS011;66121;52.584;9.694;2023-08-17T05:55:23;11.10;;;6.05;;
77146;SDS011;66121;52.584;9.694;2023-08-17T05:58:09;8.23;;;5.97;;
77146;SDS011;66121;52.584;9.694;2023-08-17T06:00:54;7.82;;;5.45;;
77146;SDS011;66121;52.584;9.694;2023-08-17T06:03:40;8.90;;;5.75;;
77146;SDS011;66121;52.584;9.694;2023-08-17T06:06:26;7.85;;;5.80;;
77146;SDS011;66121;52.584;9.694;2023-08-17T06:09:11;12.32;;;6.28;;
77146;SDS011;66121;52.584;9.694;2023-08-17T06:11:57;9.65;;;5.80;;
77146;SDS011;66121;52.584;9.694;2023-08-17T06:14:43;10.32;;;5.93;;
77146;SDS011;66121;52.584;9.694;2023-08-17T06:17:29;8.80;;;6.90;;
77146;SDS011;66121;52.584;9.694;2023-08-17T06:20:14;7.10;;;5.43;;
77146;SDS011;66121;52.584;9.694;2023-08-17T06:23:00;11.73;;;6.80;;
77146;SDS011;66121;52.584;9.694;2023-08-17T06:25:46;7.65;;;5.65;;
77146;SDS011;66121;52.584;9.694;2023-08-17T06:28:31;9.70;;;6.55;;
77146;SDS011;66121;52.584;9.694;2023-08-17T06:31:17;9.05;;;6.05;;
77146;SDS011;66121;52.584;9.694;2023-08-17T06:34:03;8.07;;;6.03;;
77146;SDS011;66121;52.584;9.694;2023-08-17T06:36:58;7.30;;;5.28;;
77146;SDS011;66121;52.584;9.694;2023-08-17T06:42:32;9.20;;;5.93;;
77146;SDS011;66121;52.584;9.694;2023-08-17T06:45:17;10.75;;;6.15;;
77146;SDS011;66121;52.584;9.694;2023-08-17T06:48:03;9.27;;;6.00;;
77146;SDS011;66121;52.584;9.694;2023-08-17T06:50:49;9.35;;;5.90;;
77146;SDS011;66121;52.584;9.694;2023-08-17T06:53:35;10.63;;;6.30;;
77146;SDS011;66121;52.584;9.694;2023-08-17T06:56:20;9.13;;;6.50;;
77146;SDS011;66121;52.584;9.694;2023-08-17T06:59:08;8.68;;;5.97;;
77146;SDS011;66121;52.584;9.694;2023-08-17T07:01:53;8.77;;;6.45;;
77146;SDS011;66121;52.584;9.694;2023-08-17T07:04:39;10.07;;;6.18;;
77146;SDS011;66121;52.584;9.694;2023-08-17T07:07:24;8.77;;;6.03;;
77146;SDS011;66121;52.584;9.694;2023-08-17T07:10:10;9.02;;;6.30;;
77146;SDS011;66121;52.584;9.694;2023-08-17T07:12:56;8.75;;;6.22;;
77146;SDS011;66121;52.584;9.694;2023-08-17T07:15:41;7.75;;;6.30;;
77146;SDS011;66121;52.584;9.694;2023-08-17T07:18:27;10.07;;;6.22;;
77146;SDS011;66121;52.584;9.694;2023-08-17T07:21:13;6.85;;;5.93;;
77146;SDS011;66121;52.584;9.694;2023-08-17T07:24:05;7.90;;;6.25;;
77146;SDS011;66121;52.584;9.694;2023-08-17T07:26:57;9.70;;;6.20;;
77146;SDS011;66121;52.584;9.694;2023-08-17T07:29:42;10.10;;;6.03;;
77146;SDS011;66121;52.584;9.694;2023-08-17T07:32:28;10.35;;;6.45;;
77146;SDS011;66121;52.584;9.694;2023-08-17T07:35:14;9.25;;;6.65;;
77146;SDS011;66121;52.584;9.694;2023-08-17T07:37:59;8.10;;;6.35;;
77146;SDS011;66121;52.584;9.694;2023-08-17T07:40:45;6.65;;;5.75;;
77146;SDS011;66121;52.584;9.694;2023-08-17T07:43:30;6.30;;;5.60;;
77146;SDS011;66121;52.584;9.694;2023-08-17T07:46:16;6.50;;;5.47;;
77146;SDS011;66121;52.584;9.694;2023-08-17T07:49:02;10.25;;;5.85;;
77146;SDS011;66121;52.584;9.694;2023-08-17T07:51:49;8.02;;;4.95;;
77146;SDS011;66121;52.584;9.694;2023-08-17T07:54:35;7.90;;;5.30;;
77146;SDS011;66121;52.584;9.694;2023-08-17T07:57:20;7.65;;;5.32;;
77146;SDS011;66121;52.584;9.694;2023-08-17T08:00:06;6.95;;;5.65;;
77146;SDS011;66121;52.584;9.694;2023-08-17T08:02:52;7.82;;;4.90;;
77146;SDS011;66121;52.584;9.694;2023-08-17T08:05:38;8.65;;;4.95;;
77146;SDS011;66121;52.584;9.694;2023-08-17T08:08:24;8.40;;;5.30;;
77146;SDS011;66121;52.584;9.694;2023-08-17T08:11:09;6.10;;;4.47;;
77146;SDS011;66121;52.584;9.694;2023-08-17T08:13:55;7.60;;;5.60;;
77146;SDS011;66121;52.584;9.694;2023-08-17T08:16:41;7.20;;;5.22;;
77146;SDS011;66121;52.584;9.694;2023-08-17T08:19:26;7.80;;;5.90;;
77146;SDS011;66121;52.584;9.694;2023-08-17T08:22:12;8.65;;;5.60;;
77146;SDS011;66121;52.584;9.694;2023-08-17T08:24:57;9.00;;;5.40;;
77146;SDS011;66121;52.584;9.694;2023-08-17T08:27:43;7.32;;;5.05;;
77146;SDS011;66121;52.584;9.694;2023-08-17T08:30:29;8.52;;;5.90;;
77146;SDS011;66121;52.584;9.694;2023-08-17T08:33:14;7.25;;;4.85;;
77146;SDS011;66121;52.584;9.694;2023-08-17T08:36:00;8.88;;;5.28;;
77146;SDS011;66121;52.584;9.694;2023-08-17T08:38:47;8.05;;;5.07;;
77146;SDS011;66121;52.584;9.694;2023-08-17T08:41:32;8.60;;;4.68;;
77146;SDS011;66121;52.584;9.694;2023-08-17T08:44:18;11.55;;;6.80;;
77146;SDS011;66121;52.584;9.694;2023-08-17T08:47:04;10.48;;;5.28;;
77146;SDS011;66121;52.584;9.694;2023-08-17T08:50:00;9.77;;;5.38;;
77146;SDS011;66121;52.584;9.694;2023-08-17T08:53:10;6.53;;;4.65;;
77146;SDS011;66121;52.584;9.694;2023-08-17T08:55:59;11.52;;;5.47;;
77146;SDS011;66121;52.584;9.694;2023-08-17T08:58:46;6.93;;;5.22;;
77146;SDS011;66121;52.584;9.694;2023-08-17T09:01:32;6.85;;;5.57;;
77146;SDS011;66121;52.584;9.694;2023-08-17T09:04:19;6.68;;;4.53;;
77146;SDS011;66121;52.584;9.694;2023-08-17T09:07:05;9.85;;;5.72;;
77146;SDS011;66121;52.584;9.694;2023-08-17T09:09:52;6.13;;;4.47;;
77146;SDS011;66121;52.584;9.694;2023-08-17T09:12:39;8.30;;;4.20;;
77146;SDS011;66121;52.584;9.694;2023-08-17T09:15:24;4.95;;;4.10;;
77146;SDS011;66121;52.584;9.694;2023-08-17T09:18:10;5.18;;;4.13;;
77146;SDS011;66121;52.584;9.694;2023-08-17T09:20:56;6.72;;;4.00;;
77146;SDS011;66121;52.584;9.694;2023-08-17T09:23:42;5.00;;;3.97;;
77146;SDS011;66121;52.584;9.694;2023-08-17T09:26:30;5.38;;;3.25;;
77146;SDS011;66121;52.584;9.694;2023-08-17T09:29:17;5.05;;;4.00;;
77146;SDS011;66121;52.584;9.694;2023-08-17T09:32:04;5.15;;;3.47;;
77146;SDS011;66121;52.584;9.694;2023-08-17T09:34:51;5.13;;;3.40;;
77146;SDS011;66121;52.584;9.694;2023-08-17T09:37:36;5.93;;;3.53;;
77146;SDS011;66121;52.584;9.694;2023-08-17T09:40:25;7.47;;;3.92;;
77146;SDS011;66121;52.584;9.694;2023-08-17T09:43:11;4.70;;;3.65;;
77146;SDS011;66121;52.584;9.694;2023-08-17T09:45:58;6.38;;;3.50;;
77146;SDS011;66121;52.584;9.694;2023-08-17T09:48:44;4.70;;;3.25;;
77146;SDS011;66121;52.584;9.694;2023-08-17T09:51:31;5.20;;;3.05;;
77146;SDS011;66121;52.584;9.694;2023-08-17T09:54:23;4.55;;;3.60;;
77146;SDS011;66121;52.584;9.694;2023-08-17T09:57:12;3.55;;;2.75;;
77146;SDS011;66121;52.584;9.694;2023-08-17T09:59:58;5.20;;;2.70;;
77146;SDS011;66121;52.584;9.694;2023-08-17T10:02:44;7.47;;;3.00;;
77146;SDS011;66121;52.584;9.694;2023-08-17T10:05:30;5.07;;;3.55;;
77146;SDS011;66121;52.584;9.694;2023-08-17T10:08:20;7.13;;;3.38;;
77146;SDS011;66121;52.584;9.694;2023-08-17T10:11:08;4.85;;;3.22;;
77146;SDS011;66121;52.584;9.694;2023-08-17T10:13:59;5.35;;;3.25;;
77146;SDS011;66121;52.584;9.694;2023-08-17T10:16:53;5.25;;;2.95;;
77146;SDS011;66121;52.584;9.694;2023-08-17T10:19:46;5.07;;;3.05;;
77146;SDS011;66121;52.584;9.694;2023-08-17T10:23:12;5.18;;;3.40;;
77146;SDS011;66121;52.584;9.694;2023-08-17T10:25:56;4.88;;;2.75;;
77146;SDS011;66121;52.584;9.694;2023-08-17T10:28:42;5.03;;;3.28;;
77146;SDS011;66121;52.584;9.694;2023-08-17T10:31:33;5.82;;;3.20;;
77146;SDS011;66121;52.584;9.694;2023-08-17T10:34:19;6.00;;;3.20;;
77146;SDS011;66121;52.584;9.694;2023-08-17T10:37:05;4.00;;;2.90;;
77146;SDS011;66121;52.584;9.694;2023-08-17T10:39:52;6.13;;;3.08;;
77146;SDS011;66121;52.584;9.694;2023-08-17T10:42:38;4.03;;;2.90;;
77146;SDS011;66121;52.584;9.694;2023-08-17T10:45:25;6.35;;;3.63;;
77146;SDS011;66121;52.584;9.694;2023-08-17T10:51:01;3.90;;;2.70;;
77146;SDS011;66121;52.584;9.694;2023-08-17T10:53:48;4.30;;;2.88;;
77146;SDS011;66121;52.584;9.694;2023-08-17T10:56:39;5.65;;;3.35;;
77146;SDS011;66121;52.584;9.694;2023-08-17T10:59:25;3.30;;;2.55;;
77146;SDS011;66121;52.584;9.694;2023-08-17T11:02:11;5.25;;;3.03;;
77146;SDS011;66121;52.584;9.694;2023-08-17T11:04:57;5.43;;;2.90;;
77146;SDS011;66121;52.584;9.694;2023-08-17T11:07:44;5.43;;;2.63;;
77146;SDS011;66121;52.584;9.694;2023-08-17T11:10:30;7.97;;;3.08;;
77146;SDS011;66121;52.584;9.694;2023-08-17T11:13:16;5.43;;;3.05;;
77146;SDS011;66121;52.584;9.694;2023-08-17T11:16:01;4.28;;;3.30;;
77146;SDS011;66121;52.584;9.694;2023-08-17T11:18:48;4.53;;;3.35;;
77146;SDS011;66121;52.584;9.694;2023-08-17T11:21:35;4.05;;;2.72;;
77146;SDS011;66121;52.584;9.694;2023-08-17T11:24:21;6.25;;;3.10;;
77146;SDS011;66121;52.584;9.694;2023-08-17T11:27:07;3.67;;;2.90;;
77146;SDS011;66121;52.584;9.694;2023-08-17T11:29:53;5.57;;;2.80;;
77146;SDS011;66121;52.584;9.694;2023-08-17T11:32:38;7.55;;;3.47;;
77146;SDS011;66121;52.584;9.694;2023-08-17T11:35:24;5.15;;;3.75;;
77146;SDS011;66121;52.584;9.694;2023-08-17T11:38:10;5.90;;;3.15;;
77146;SDS011;66121;52.584;9.694;2023-08-17T11:40:56;4.07;;;2.85;;
77146;SDS011;66121;52.584;9.694;2023-08-17T11:43:43;7.78;;;3.75;;
77146;SDS011;66121;52.584;9.694;2023-08-17T11:46:29;4.57;;;3.08;;
77146;SDS011;66121;52.584;9.694;2023-08-17T11:49:16;4.00;;;3.13;;
77146;SDS011;66121;52.584;9.694;2023-08-17T11:52:02;5.93;;;3.20;;
77146;SDS011;66121;52.584;9.694;2023-08-17T11:54:48;4.60;;;3.00;;
77146;SDS011;66121;52.584;9.694;2023-08-17T11:57:33;4.22;;;3.60;;
77146;SDS011;66121;52.584;9.694;2023-08-17T12:00:20;5.88;;;3.20;;
77146;SDS011;66121;52.584;9.694;2023-08-17T12:03:07;4.47;;;3.55;;
77146;SDS011;66121;52.584;9.694;2023-08-17T12:05:52;4.22;;;3.25;;
77146;SDS011;66121;52.584;9.694;2023-08-17T12:08:38;6.97;;;3.10;;
77146;SDS011;66121;52.584;9.694;2023-08-17T12:11:26;7.82;;;3.58;;
77146;SDS011;66121;52.584;9.694;2023-08-17T12:14:12;3.72;;;3.08;;
77146;SDS011;66121;52.584;9.694;2023-08-17T12:16:58;5.57;;;3.22;;
77146;SDS011;66121;52.584;9.694;2023-08-17T12:19:43;4.18;;;2.92;;
77146;SDS011;66121;52.584;9.694;2023-08-17T12:22:30;4.63;;;3.40;;
77146;SDS011;66121;52.584;9.694;2023-08-17T12:25:16;5.00;;;3.35;;
77146;SDS011;66121;52.584;9.694;2023-08-17T12:28:05;8.27;;;3.53;;
77146;SDS011;66121;52.584;9.694;2023-08-17T12:30:58;5.05;;;3.50;;
77146;SDS011;66121;52.584;9.694;2023-08-17T12:33:45;6.20;;;3.75;;
77146;SDS011;66121;52.584;9.694;2023-08-17T12:36:31;5.00;;;3.58;;
77146;SDS011;66121;52.584;9.694;2023-08-17T12:39:17;4.60;;;3.10;;
77146;SDS011;66121;52.584;9.694;2023-08-17T12:42:03;4.20;;;3.25;;
77146;SDS011;66121;52.584;9.694;2023-08-17T12:44:50;5.00;;;3.33;;
77146;SDS011;66121;52.584;9.694;2023-08-17T12:47:35;5.75;;;3.10;;
77146;SDS011;66121;52.584;9.694;2023-08-17T12:50:21;4.80;;;3.72;;
77146;SDS011;66121;52.584;9.694;2023-08-17T12:53:07;4.63;;;3.22;;
77146;SDS011;66121;52.584;9.694;2023-08-17T12:55:52;6.60;;;4.45;;
77146;SDS011;66121;52.584;9.694;2023-08-17T12:58:38;7.07;;;3.53;;
77146;SDS011;66121;52.584;9.694;2023-08-17T13:01:23;6.28;;;4.05;;
77146;SDS011;66121;52.584;9.694;2023-08-17T13:04:09;8.98;;;4.30;;
77146;SDS011;66121;52.584;9.694;2023-08-17T13:06:55;4.55;;;2.85;;
77146;SDS011;66121;52.584;9.694;2023-08-17T13:09:40;7.90;;;3.70;;
77146;SDS011;66121;52.584;9.694;2023-08-17T13:12:26;4.60;;;3.33;;
77146;SDS011;66121;52.584;9.694;2023-08-17T13:15:12;5.75;;;3.80;;
77146;SDS011;66121;52.584;9.694;2023-08-17T13:17:58;6.22;;;4.40;;
77146;SDS011;66121;52.584;9.694;2023-08-17T13:20:44;5.88;;;3.40;;
77146;SDS011;66121;52.584;9.694;2023-08-17T13:23:30;4.50;;;3.55;;
77146;SDS011;66121;52.584;9.694;2023-08-17T13:26:15;5.13;;;3.67;;
77146;SDS011;66121;52.584;9.694;2023-08-17T13:29:01;5.78;;;3.80;;
77146;SDS011;66121;52.584;9.694;2023-08-17T13:31:48;4.03;;;3.47;;
77146;SDS011;66121;52.584;9.694;2023-08-17T13:34:33;4.20;;;3.05;;
77146;SDS011;66121;52.584;9.694;2023-08-17T13:37:19;4.28;;;3.13;;
77146;SDS011;66121;52.584;9.694;2023-08-17T13:40:05;6.72;;;3.72;;
77146;SDS011;66121;52.584;9.694;2023-08-17T13:42:51;4.55;;;3.80;;
77146;SDS011;66121;52.584;9.694;2023-08-17T13:45:40;5.47;;;4.40;;
77146;SDS011;66121;52.584;9.694;2023-08-17T13:48:26;5.20;;;4.00;;
77146;SDS011;66121;52.584;9.694;2023-08-17T13:51:12;5.30;;;4.18;;
77146;SDS011;66121;52.584;9.694;2023-08-17T13:53:57;5.65;;;4.25;;
77146;SDS011;66121;52.584;9.694;2023-08-17T13:56:43;4.88;;;3.22;;
77146;SDS011;66121;52.584;9.694;2023-08-17T13:59:29;6.05;;;3.67;;
77146;SDS011;66121;52.584;9.694;2023-08-17T14:02:15;6.80;;;3.60;;
77146;SDS011;66121;52.584;9.694;2023-08-17T14:05:00;4.20;;;3.53;;
77146;SDS011;66121;52.584;9.694;2023-08-17T14:07:47;6.00;;;3.97;;
77146;SDS011;66121;52.584;9.694;2023-08-17T14:10:33;3.97;;;3.53;;
77146;SDS011;66121;52.584;9.694;2023-08-17T14:13:21;5.53;;;3.25;;
77146;SDS011;66121;52.584;9.694;2023-08-17T14:16:06;5.70;;;3.70;;
77146;SDS011;66121;52.584;9.694;2023-08-17T14:18:52;7.95;;;3.58;;
77146;SDS011;66121;52.584;9.694;2023-08-17T14:21:39;4.47;;;3.65;;
77146;SDS011;66121;52.584;9.694;2023-08-17T14:24:24;6.47;;;3.33;;
77146;SDS011;66121;52.584;9.694;2023-08-17T14:27:10;4.15;;;3.28;;
77146;SDS011;66121;52.584;9.694;2023-08-17T14:29:56;4.63;;;3.22;;
77146;SDS011;66121;52.584;9.694;2023-08-17T14:32:42;5.88;;;3.03;;
77146;SDS011;66121;52.584;9.694;2023-08-17T14:35:27;5.32;;;3.40;;
77146;SDS011;66121;52.584;9.694;2023-08-17T14:38:13;6.80;;;3.65;;
77146;SDS011;66121;52.584;9.694;2023-08-17T14:40:59;4.32;;;3.55;;
77146;SDS011;66121;52.584;9.694;2023-08-17T14:43:44;7.13;;;3.20;;
77146;SDS011;66121;52.584;9.694;2023-08-17T14:46:30;4.13;;;2.78;;
77146;SDS011;66121;52.584;9.694;2023-08-17T14:49:16;4.97;;;3.03;;
77146;SDS011;66121;52.584;9.694;2023-08-17T14:52:01;5.90;;;3.05;;
77146;SDS011;66121;52.584;9.694;2023-08-17T14:54:47;4.65;;;3.80;;
77146;SDS011;66121;52.584;9.694;2023-08-17T14:57:33;5.72;;;3.75;;
77146;SDS011;66121;52.584;9.694;2023-08-17T15:00:18;5.18;;;3.80;;
77146;SDS011;66121;52.584;9.694;2023-08-17T15:03:04;4.97;;;3.63;;
77146;SDS011;66121;52.584;9.694;2023-08-17T15:05:50;5.18;;;3.53;;
77146;SDS011;66121;52.584;9.694;2023-08-17T15:08:35;7.82;;;3.78;;
77146;SDS011;66121;52.584;9.694;2023-08-17T15:11:21;7.70;;;3.33;;
77146;SDS011;66121;52.584;9.694;2023-08-17T15:14:06;5.90;;;3.58;;
77146;SDS011;66121;52.584;9.694;2023-08-17T15:16:52;5.43;;;2.97;;
77146;SDS011;66121;52.584;9.694;2023-08-17T15:19:38;6.05;;;3.25;;
77146;SDS011;66121;52.584;9.694;2023-08-17T15:22:23;4.07;;;2.88;;
77146;SDS011;66121;52.584;9.694;2023-08-17T15:25:09;5.75;;;3.45;;
77146;SDS011;66121;52.584;9.694;2023-08-17T15:27:55;6.55;;;2.97;;
77146;SDS011;66121;52.584;9.694;2023-08-17T15:30:40;5.90;;;3.50;;
77146;SDS011;66121;52.584;9.694;2023-08-17T15:33:26;4.50;;;3.42;;
77146;SDS011;66121;52.584;9.694;2023-08-17T15:36:12;6.03;;;3.17;;
77146;SDS011;66121;52.584;9.694;2023-08-17T15:38:57;5.38;;;3.45;;
77146;SDS011;66121;52.584;9.694;2023-08-17T15:41:43;5.72;;;3.13;;
77146;SDS011;66121;52.584;9.694;2023-08-17T15:44:29;5.53;;;3.97;;
77146;SDS011;66121;52.584;9.694;2023-08-17T15:47:16;4.47;;;2.90;;
77146;SDS011;66121;52.584;9.694;2023-08-17T15:50:02;5.65;;;3.38;;
77146;SDS011;66121;52.584;9.694;2023-08-17T15:52:48;4.13;;;3.15;;
77146;SDS011;66121;52.584;9.694;2023-08-17T15:55:34;4.10;;;3.13;;
77146;SDS011;66121;52.584;9.694;2023-08-17T15:58:20;5.47;;;3.50;;
77146;SDS011;66121;52.584;9.694;2023-08-17T16:01:05;3.92;;;3.05;;
77146;SDS011;66121;52.584;9.694;2023-08-17T16:03:51;4.13;;;2.78;;
77146;SDS011;66121;52.584;9.694;2023-08-17T16:06:37;5.00;;;2.90;;
77146;SDS011;66121;52.584;9.694;2023-08-17T16:09:27;4.78;;;3.30;;
77146;SDS011;66121;52.584;9.694;2023-08-17T16:12:13;4.03;;;2.95;;
77146;SDS011;66121;52.584;9.694;2023-08-17T16:14:59;5.78;;;3.05;;
77146;SDS011;66121;52.584;9.694;2023-08-17T16:17:44;7.13;;;3.53;;
77146;SDS011;66121;52.584;9.694;2023-08-17T16:20:30;5.47;;;3.53;;
77146;SDS011;66121;52.584;9.694;2023-08-17T16:23:18;4.57;;;3.20;;
77146;SDS011;66121;52.584;9.694;2023-08-17T16:26:05;3.63;;;2.50;;
77146;SDS011;66121;52.584;9.694;2023-08-17T16:28:50;9.68;;;3.80;;
77146;SDS011;66121;52.584;9.694;2023-08-17T16:31:36;9.68;;;3.65;;
77146;SDS011;66121;52.584;9.694;2023-08-17T16:34:22;6.97;;;3.40;;
77146;SDS011;66121;52.584;9.694;2023-08-17T16:37:07;5.35;;;3.58;;
77146;SDS011;66121;52.584;9.694;2023-08-17T16:39:54;4.85;;;2.95;;
77146;SDS011;66121;52.584;9.694;2023-08-17T16:42:40;4.75;;;3.08;;
77146;SDS011;66121;52.584;9.694;2023-08-17T16:45:26;5.47;;;3.15;;
77146;SDS011;66121;52.584;9.694;2023-08-17T16:48:12;5.50;;;2.92;;